sensor_id;sensor_type;location;lat;lon;timestamp;P1;durP1;ratioP1;P2;durP2;ratioP2
66585;SDS011;53444;45.822;16.092;2023-03-24T00:01:47;7.55;;;4.60;;
66585;SDS011;53444;45.822;16.092;2023-03-24T00:04:13;7.00;;;4.80;;
66585;SDS011;53444;45.822;16.092;2023-03-24T00:06:40;7.28;;;4.75;;
66585;SDS011;53444;45.822;16.092;2023-03-24T00:09:07;8.02;;;4.82;;
66585;SDS011;53444;45.822;16.092;2023-03-24T00:11:38;6.50;;;4.70;;
66585;SDS011;53444;45.822;16.092;2023-03-24T00:14:04;8.73;;;4.97;;
66585;SDS011;53444;45.822;16.092;2023-03-24T00:16:31;7.80;;;4.50;;
66585;SDS011;53444;45.822;16.092;2023-03-24T00:18:59;7.13;;;4.85;;
66585;SDS011;53444;45.822;16.092;2023-03-24T00:21:26;7.90;;;5.03;;
66585;SDS011;53444;45.822;16.092;2023-03-24T00:23:53;8.95;;;6.10;;
66585;SDS011;53444;45.822;16.092;2023-03-24T00:26:22;11.40;;;6.60;;
66585;SDS011;53444;45.822;16.092;2023-03-24T00:28:51;13.03;;;7.27;;
66585;SDS011;53444;45.822;16.092;2023-03-24T00:31:18;13.10;;;7.60;;
66585;SDS011;53444;45.822;16.092;2023-03-24T00:33:46;10.55;;;7.15;;
66585;SDS011;53444;45.822;16.092;2023-03-24T00:36:15;14.57;;;8.35;;
66585;SDS011;53444;45.822;16.092;2023-03-24T00:38:43;12.27;;;7.22;;
66585;SDS011;53444;45.822;16.092;2023-03-24T00:41:11;13.40;;;7.50;;
66585;SDS011;53444;45.822;16.092;2023-03-24T00:43:41;12.52;;;7.60;;
66585;SDS011;53444;45.822;16.092;2023-03-24T00:46:11;11.93;;;6.32;;
66585;SDS011;53444;45.822;16.092;2023-03-24T00:48:52;11.52;;;7.50;;
66585;SDS011;53444;45.822;16.092;2023-03-24T00:51:22;12.95;;;7.75;;
66585;SDS011;53444;45.822;16.092;2023-03-24T00:53:49;18.70;;;8.33;;
66585;SDS011;53444;45.822;16.092;2023-03-24T00:56:21;11.55;;;7.72;;
66585;SDS011;53444;45.822;16.092;2023-03-24T00:58:49;11.65;;;6.88;;
66585;SDS011;53444;45.822;16.092;2023-03-24T01:01:17;14.00;;;6.78;;
66585;SDS011;53444;45.822;16.092;2023-03-24T01:03:46;12.15;;;7.25;;
66585;SDS011;53444;45.822;16.092;2023-03-24T01:06:15;13.10;;;6.80;;
66585;SDS011;53444;45.822;16.092;2023-03-24T01:08:42;11.13;;;7.20;;
66585;SDS011;53444;45.822;16.092;2023-03-24T01:11:09;12.25;;;7.25;;
66585;SDS011;53444;45.822;16.092;2023-03-24T01:13:37;11.77;;;6.90;;
66585;SDS011;53444;45.822;16.092;2023-03-24T01:16:05;13.15;;;7.35;;
66585;SDS011;53444;45.822;16.092;2023-03-24T01:18:34;11.67;;;7.20;;
66585;SDS011;53444;45.822;16.092;2023-03-24T01:21:04;15.00;;;7.45;;
66585;SDS011;53444;45.822;16.092;2023-03-24T01:23:32;12.02;;;7.38;;
66585;SDS011;53444;45.822;16.092;2023-03-24T01:26:02;11.63;;;6.53;;
66585;SDS011;53444;45.822;16.092;2023-03-24T01:28:30;11.82;;;7.15;;
66585;SDS011;53444;45.822;16.092;2023-03-24T01:30:57;12.57;;;6.93;;
66585;SDS011;53444;45.822;16.092;2023-03-24T01:33:24;10.63;;;6.70;;
66585;SDS011;53444;45.822;16.092;2023-03-24T01:35:52;11.30;;;6.22;;
66585;SDS011;53444;45.822;16.092;2023-03-24T01:38:19;10.38;;;6.50;;
66585;SDS011;53444;45.822;16.092;2023-03-24T01:40:46;10.93;;;7.25;;
66585;SDS011;53444;45.822;16.092;2023-03-24T01:43:15;11.77;;;6.00;;
66585;SDS011;53444;45.822;16.092;2023-03-24T01:45:50;11.43;;;6.05;;
66585;SDS011;53444;45.822;16.092;2023-03-24T01:48:23;10.07;;;6.13;;
66585;SDS011;53444;45.822;16.092;2023-03-24T01:50:56;12.57;;;6.45;;
66585;SDS011;53444;45.822;16.092;2023-03-24T01:53:26;9.43;;;5.70;;
66585;SDS011;53444;45.822;16.092;2023-03-24T01:55:53;12.77;;;5.87;;
66585;SDS011;53444;45.822;16.092;2023-03-24T01:58:21;8.38;;;5.20;;
66585;SDS011;53444;45.822;16.092;2023-03-24T02:00:49;8.40;;;5.80;;
66585;SDS011;53444;45.822;16.092;2023-03-24T02:03:16;9.10;;;5.43;;
66585;SDS011;53444;45.822;16.092;2023-03-24T02:05:46;9.93;;;5.65;;
66585;SDS011;53444;45.822;16.092;2023-03-24T02:08:17;7.80;;;4.90;;
66585;SDS011;53444;45.822;16.092;2023-03-24T02:10:48;8.65;;;5.18;;
66585;SDS011;53444;45.822;16.092;2023-03-24T02:13:17;8.38;;;5.32;;
66585;SDS011;53444;45.822;16.092;2023-03-24T02:15:46;7.82;;;5.13;;
66585;SDS011;53444;45.822;16.092;2023-03-24T02:18:21;6.80;;;4.85;;
66585;SDS011;53444;45.822;16.092;2023-03-24T02:23:56;7.47;;;4.95;;
66585;SDS011;53444;45.822;16.092;2023-03-24T02:26:47;10.18;;;4.88;;
66585;SDS011;53444;45.822;16.092;2023-03-24T02:29:38;9.35;;;5.88;;
66585;SDS011;53444;45.822;16.092;2023-03-24T02:32:38;7.35;;;4.78;;
66585;SDS011;53444;45.822;16.092;2023-03-24T02:38:38;8.85;;;4.95;;
66585;SDS011;53444;45.822;16.092;2023-03-24T02:41:20;7.93;;;4.93;;
66585;SDS011;53444;45.822;16.092;2023-03-24T02:43:56;8.48;;;4.93;;
66585;SDS011;53444;45.822;16.092;2023-03-24T02:46:30;7.68;;;4.40;;
66585;SDS011;53444;45.822;16.092;2023-03-24T02:49:04;7.37;;;4.70;;
66585;SDS011;53444;45.822;16.092;2023-03-24T02:51:37;9.60;;;4.68;;
66585;SDS011;53444;45.822;16.092;2023-03-24T02:54:11;8.38;;;4.60;;
66585;SDS011;53444;45.822;16.092;2023-03-24T02:56:43;8.40;;;4.60;;
66585;SDS011;53444;45.822;16.092;2023-03-24T02:59:15;6.80;;;4.20;;
66585;SDS011;53444;45.822;16.092;2023-03-24T03:01:46;6.50;;;4.60;;
66585;SDS011;53444;45.822;16.092;2023-03-24T03:04:18;6.47;;;4.47;;
66585;SDS011;53444;45.822;16.092;2023-03-24T03:06:52;8.95;;;4.82;;
66585;SDS011;53444;45.822;16.092;2023-03-24T03:09:22;7.30;;;4.57;;
66585;SDS011;53444;45.822;16.092;2023-03-24T03:11:52;7.18;;;4.75;;
66585;SDS011;53444;45.822;16.092;2023-03-24T03:14:23;7.73;;;4.70;;
66585;SDS011;53444;45.822;16.092;2023-03-24T03:16:54;8.27;;;5.15;;
66585;SDS011;53444;45.822;16.092;2023-03-24T03:19:27;7.90;;;4.43;;
66585;SDS011;53444;45.822;16.092;2023-03-24T03:21:57;8.68;;;4.82;;
66585;SDS011;53444;45.822;16.092;2023-03-24T03:24:29;9.27;;;5.10;;
66585;SDS011;53444;45.822;16.092;2023-03-24T03:27:01;7.23;;;4.70;;
66585;SDS011;53444;45.822;16.092;2023-03-24T03:29:30;8.98;;;4.40;;
66585;SDS011;53444;45.822;16.092;2023-03-24T03:32:01;11.82;;;4.78;;
66585;SDS011;53444;45.822;16.092;2023-03-24T03:34:33;7.18;;;4.68;;
66585;SDS011;53444;45.822;16.092;2023-03-24T03:37:06;7.32;;;4.47;;
66585;SDS011;53444;45.822;16.092;2023-03-24T03:39:37;8.80;;;5.20;;
66585;SDS011;53444;45.822;16.092;2023-03-24T03:42:11;10.65;;;5.22;;
66585;SDS011;53444;45.822;16.092;2023-03-24T03:44:38;8.18;;;4.97;;
66585;SDS011;53444;45.822;16.092;2023-03-24T03:47:05;9.52;;;5.28;;
66585;SDS011;53444;45.822;16.092;2023-03-24T03:49:32;7.30;;;4.90;;
66585;SDS011;53444;45.822;16.092;2023-03-24T03:51:58;9.30;;;5.67;;
66585;SDS011;53444;45.822;16.092;2023-03-24T03:54:25;10.57;;;6.22;;
66585;SDS011;53444;45.822;16.092;2023-03-24T03:56:55;12.80;;;5.30;;
66585;SDS011;53444;45.822;16.092;2023-03-24T03:59:24;11.18;;;5.88;;
66585;SDS011;53444;45.822;16.092;2023-03-24T04:01:54;9.50;;;5.30;;
66585;SDS011;53444;45.822;16.092;2023-03-24T04:04:34;11.23;;;5.80;;
66585;SDS011;53444;45.822;16.092;2023-03-24T04:07:28;12.82;;;6.07;;
66585;SDS011;53444;45.822;16.092;2023-03-24T04:10:02;12.07;;;6.18;;
66585;SDS011;53444;45.822;16.092;2023-03-24T04:18:05;11.37;;;5.93;;
66585;SDS011;53444;45.822;16.092;2023-03-24T04:20:42;11.48;;;6.15;;
66585;SDS011;53444;45.822;16.092;2023-03-24T04:23:13;12.93;;;6.40;;
66585;SDS011;53444;45.822;16.092;2023-03-24T04:25:52;13.98;;;6.47;;
66585;SDS011;53444;45.822;16.092;2023-03-24T04:28:28;11.57;;;6.53;;
66585;SDS011;53444;45.822;16.092;2023-03-24T04:31:04;11.07;;;6.40;;
66585;SDS011;53444;45.822;16.092;2023-03-24T04:33:39;10.50;;;6.03;;
66585;SDS011;53444;45.822;16.092;2023-03-24T04:36:13;12.57;;;6.00;;
66585;SDS011;53444;45.822;16.092;2023-03-24T04:38:47;12.70;;;6.15;;
66585;SDS011;53444;45.822;16.092;2023-03-24T04:41:17;10.70;;;6.30;;
66585;SDS011;53444;45.822;16.092;2023-03-24T04:43:46;10.10;;;5.90;;
66585;SDS011;53444;45.822;16.092;2023-03-24T04:46:15;9.80;;;6.13;;
66585;SDS011;53444;45.822;16.092;2023-03-24T04:48:42;13.52;;;6.45;;
66585;SDS011;53444;45.822;16.092;2023-03-24T04:51:10;13.45;;;7.32;;
66585;SDS011;53444;45.822;16.092;2023-03-24T04:53:37;10.68;;;6.63;;
66585;SDS011;53444;45.822;16.092;2023-03-24T04:56:06;12.00;;;6.57;;
66585;SDS011;53444;45.822;16.092;2023-03-24T04:58:47;10.57;;;6.60;;
66585;SDS011;53444;45.822;16.092;2023-03-24T05:01:16;10.35;;;6.72;;
66585;SDS011;53444;45.822;16.092;2023-03-24T05:03:45;13.98;;;6.78;;
66585;SDS011;53444;45.822;16.092;2023-03-24T05:06:12;11.43;;;6.25;;
66585;SDS011;53444;45.822;16.092;2023-03-24T05:08:39;13.27;;;6.30;;
66585;SDS011;53444;45.822;16.092;2023-03-24T05:11:06;14.23;;;7.05;;
66585;SDS011;53444;45.822;16.092;2023-03-24T05:13:33;13.35;;;7.13;;
66585;SDS011;53444;45.822;16.092;2023-03-24T05:15:59;15.05;;;7.28;;
66585;SDS011;53444;45.822;16.092;2023-03-24T05:18:27;13.60;;;7.45;;
66585;SDS011;53444;45.822;16.092;2023-03-24T05:20:54;14.13;;;7.10;;
66585;SDS011;53444;45.822;16.092;2023-03-24T05:23:21;13.00;;;7.55;;
66585;SDS011;53444;45.822;16.092;2023-03-24T05:25:47;14.55;;;7.57;;
66585;SDS011;53444;45.822;16.092;2023-03-24T05:28:14;13.40;;;7.00;;
66585;SDS011;53444;45.822;16.092;2023-03-24T05:30:41;11.52;;;7.18;;
66585;SDS011;53444;45.822;16.092;2023-03-24T05:33:08;13.63;;;7.20;;
66585;SDS011;53444;45.822;16.092;2023-03-24T05:35:36;14.20;;;7.60;;
66585;SDS011;53444;45.822;16.092;2023-03-24T05:38:04;13.55;;;7.05;;
66585;SDS011;53444;45.822;16.092;2023-03-24T05:40:31;17.45;;;7.55;;
66585;SDS011;53444;45.822;16.092;2023-03-24T05:42:58;13.68;;;7.60;;
66585;SDS011;53444;45.822;16.092;2023-03-24T05:45:25;15.40;;;8.27;;
66585;SDS011;53444;45.822;16.092;2023-03-24T05:47:53;15.38;;;8.45;;
66585;SDS011;53444;45.822;16.092;2023-03-24T05:50:21;17.60;;;8.65;;
66585;SDS011;53444;45.822;16.092;2023-03-24T05:52:50;18.25;;;9.63;;
66585;SDS011;53444;45.822;16.092;2023-03-24T05:55:17;21.30;;;12.10;;
66585;SDS011;53444;45.822;16.092;2023-03-24T05:57:46;18.40;;;10.93;;
66585;SDS011;53444;45.822;16.092;2023-03-24T06:00:13;18.10;;;9.18;;
66585;SDS011;53444;45.822;16.092;2023-03-24T06:02:42;17.15;;;7.53;;
66585;SDS011;53444;45.822;16.092;2023-03-24T06:05:10;13.23;;;6.53;;
66585;SDS011;53444;45.822;16.092;2023-03-24T06:07:40;13.45;;;6.72;;
66585;SDS011;53444;45.822;16.092;2023-03-24T06:10:11;12.80;;;6.77;;
66585;SDS011;53444;45.822;16.092;2023-03-24T06:12:42;12.85;;;6.93;;
66585;SDS011;53444;45.822;16.092;2023-03-24T06:15:10;15.88;;;8.32;;
66585;SDS011;53444;45.822;16.092;2023-03-24T06:17:41;15.75;;;7.68;;
66585;SDS011;53444;45.822;16.092;2023-03-24T06:20:11;13.00;;;7.85;;
66585;SDS011;53444;45.822;16.092;2023-03-24T06:22:40;15.47;;;7.23;;
66585;SDS011;53444;45.822;16.092;2023-03-24T06:25:10;10.20;;;6.55;;
66585;SDS011;53444;45.822;16.092;2023-03-24T06:27:40;11.60;;;6.25;;
66585;SDS011;53444;45.822;16.092;2023-03-24T06:30:11;9.80;;;5.50;;
66585;SDS011;53444;45.822;16.092;2023-03-24T06:32:39;12.40;;;6.28;;
66585;SDS011;53444;45.822;16.092;2023-03-24T06:35:07;10.50;;;6.27;;
66585;SDS011;53444;45.822;16.092;2023-03-24T06:37:35;18.35;;;6.22;;
66585;SDS011;53444;45.822;16.092;2023-03-24T06:40:02;11.55;;;7.07;;
66585;SDS011;53444;45.822;16.092;2023-03-24T06:42:35;10.27;;;6.75;;
66585;SDS011;53444;45.822;16.092;2023-03-24T06:45:03;13.27;;;7.13;;
66585;SDS011;53444;45.822;16.092;2023-03-24T06:47:31;9.53;;;5.40;;
66585;SDS011;53444;45.822;16.092;2023-03-24T06:49:58;14.82;;;5.68;;
66585;SDS011;53444;45.822;16.092;2023-03-24T06:52:25;8.38;;;5.25;;
66585;SDS011;53444;45.822;16.092;2023-03-24T06:54:53;10.77;;;5.22;;
66585;SDS011;53444;45.822;16.092;2023-03-24T06:57:21;8.63;;;5.32;;
66585;SDS011;53444;45.822;16.092;2023-03-24T06:59:50;10.17;;;5.13;;
66585;SDS011;53444;45.822;16.092;2023-03-24T07:02:18;9.45;;;5.13;;
66585;SDS011;53444;45.822;16.092;2023-03-24T07:04:45;9.32;;;5.05;;
66585;SDS011;53444;45.822;16.092;2023-03-24T07:07:13;7.80;;;4.50;;
66585;SDS011;53444;45.822;16.092;2023-03-24T07:09:41;10.45;;;5.35;;
66585;SDS011;53444;45.822;16.092;2023-03-24T07:12:08;5.47;;;3.67;;
66585;SDS011;53444;45.822;16.092;2023-03-24T07:14:37;4.50;;;2.80;;
66585;SDS011;53444;45.822;16.092;2023-03-24T07:17:08;7.32;;;3.38;;
66585;SDS011;53444;45.822;16.092;2023-03-24T07:19:35;6.03;;;3.08;;
66585;SDS011;53444;45.822;16.092;2023-03-24T07:22:03;4.32;;;2.70;;
66585;SDS011;53444;45.822;16.092;2023-03-24T07:24:32;3.40;;;2.50;;
66585;SDS011;53444;45.822;16.092;2023-03-24T07:27:00;5.65;;;2.92;;
66585;SDS011;53444;45.822;16.092;2023-03-24T07:29:27;4.80;;;2.95;;
66585;SDS011;53444;45.822;16.092;2023-03-24T07:31:54;4.63;;;2.70;;
66585;SDS011;53444;45.822;16.092;2023-03-24T07:34:26;3.92;;;2.50;;
66585;SDS011;53444;45.822;16.092;2023-03-24T07:36:54;3.03;;;2.40;;
66585;SDS011;53444;45.822;16.092;2023-03-24T07:39:21;2.92;;;2.05;;
66585;SDS011;53444;45.822;16.092;2023-03-24T07:41:48;4.07;;;2.55;;
66585;SDS011;53444;45.822;16.092;2023-03-24T07:44:15;8.32;;;3.30;;
66585;SDS011;53444;45.822;16.092;2023-03-24T07:46:43;3.83;;;2.63;;
66585;SDS011;53444;45.822;16.092;2023-03-24T07:49:10;4.57;;;2.67;;
66585;SDS011;53444;45.822;16.092;2023-03-24T07:51:39;3.88;;;2.60;;
66585;SDS011;53444;45.822;16.092;2023-03-24T07:54:06;2.72;;;1.88;;
66585;SDS011;53444;45.822;16.092;2023-03-24T07:56:33;3.13;;;2.15;;
66585;SDS011;53444;45.822;16.092;2023-03-24T07:59:00;4.25;;;2.05;;
66585;SDS011;53444;45.822;16.092;2023-03-24T08:01:27;2.30;;;1.70;;
66585;SDS011;53444;45.822;16.092;2023-03-24T08:03:54;3.35;;;2.35;;
66585;SDS011;53444;45.822;16.092;2023-03-24T08:06:22;3.25;;;2.55;;
66585;SDS011;53444;45.822;16.092;2023-03-24T08:08:51;3.17;;;2.00;;
66585;SDS011;53444;45.822;16.092;2023-03-24T08:11:18;3.33;;;2.50;;
66585;SDS011;53444;45.822;16.092;2023-03-24T08:13:45;3.27;;;2.17;;
66585;SDS011;53444;45.822;16.092;2023-03-24T08:16:13;4.38;;;2.85;;
66585;SDS011;53444;45.822;16.092;2023-03-24T08:18:40;2.83;;;1.80;;
66585;SDS011;53444;45.822;16.092;2023-03-24T08:21:07;2.35;;;1.98;;
66585;SDS011;53444;45.822;16.092;2023-03-24T08:23:35;2.83;;;1.92;;
66585;SDS011;53444;45.822;16.092;2023-03-24T08:26:04;3.37;;;2.00;;
66585;SDS011;53444;45.822;16.092;2023-03-24T08:28:34;2.38;;;1.75;;
66585;SDS011;53444;45.822;16.092;2023-03-24T08:31:02;3.35;;;2.10;;
66585;SDS011;53444;45.822;16.092;2023-03-24T08:33:29;8.02;;;1.77;;
66585;SDS011;53444;45.822;16.092;2023-03-24T08:35:56;2.50;;;1.90;;
66585;SDS011;53444;45.822;16.092;2023-03-24T08:38:25;3.70;;;2.10;;
66585;SDS011;53444;45.822;16.092;2023-03-24T08:40:56;7.40;;;2.10;;
66585;SDS011;53444;45.822;16.092;2023-03-24T08:43:28;4.18;;;2.22;;
66585;SDS011;53444;45.822;16.092;2023-03-24T08:45:56;4.43;;;2.03;;
66585;SDS011;53444;45.822;16.092;2023-03-24T08:48:25;4.68;;;2.25;;
66585;SDS011;53444;45.822;16.092;2023-03-24T08:50:54;3.83;;;2.03;;
66585;SDS011;53444;45.822;16.092;2023-03-24T08:53:21;2.78;;;1.70;;
66585;SDS011;53444;45.822;16.092;2023-03-24T08:55:49;3.20;;;1.60;;
66585;SDS011;53444;45.822;16.092;2023-03-24T08:58:17;4.32;;;1.58;;
66585;SDS011;53444;45.822;16.092;2023-03-24T09:00:47;3.13;;;2.22;;
66585;SDS011;53444;45.822;16.092;2023-03-24T09:03:16;4.27;;;1.83;;
66585;SDS011;53444;45.822;16.092;2023-03-24T09:05:46;2.90;;;1.80;;
66585;SDS011;53444;45.822;16.092;2023-03-24T09:08:17;2.63;;;1.83;;
66585;SDS011;53444;45.822;16.092;2023-03-24T09:10:45;4.43;;;1.83;;
66585;SDS011;53444;45.822;16.092;2023-03-24T09:13:12;2.78;;;2.08;;
66585;SDS011;53444;45.822;16.092;2023-03-24T09:15:44;3.90;;;2.07;;
66585;SDS011;53444;45.822;16.092;2023-03-24T09:18:13;2.90;;;2.00;;
66585;SDS011;53444;45.822;16.092;2023-03-24T09:20:41;4.30;;;2.38;;
66585;SDS011;53444;45.822;16.092;2023-03-24T09:23:09;2.85;;;1.92;;
66585;SDS011;53444;45.822;16.092;2023-03-24T09:25:36;3.33;;;2.33;;
66585;SDS011;53444;45.822;16.092;2023-03-24T09:28:04;4.63;;;1.87;;
66585;SDS011;53444;45.822;16.092;2023-03-24T09:30:32;3.22;;;2.20;;
66585;SDS011;53444;45.822;16.092;2023-03-24T09:33:03;3.33;;;2.40;;
66585;SDS011;53444;45.822;16.092;2023-03-24T09:35:31;2.55;;;1.67;;
66585;SDS011;53444;45.822;16.092;2023-03-24T09:37:59;2.88;;;1.70;;
66585;SDS011;53444;45.822;16.092;2023-03-24T09:40:27;3.20;;;1.87;;
66585;SDS011;53444;45.822;16.092;2023-03-24T09:42:56;6.07;;;1.73;;
66585;SDS011;53444;45.822;16.092;2023-03-24T09:45:28;4.57;;;2.70;;
66585;SDS011;53444;45.822;16.092;2023-03-24T09:47:59;5.68;;;2.85;;
66585;SDS011;53444;45.822;16.092;2023-03-24T09:50:34;4.45;;;2.40;;
66585;SDS011;53444;45.822;16.092;2023-03-24T09:53:19;3.53;;;2.50;;
66585;SDS011;53444;45.822;16.092;2023-03-24T09:55:54;3.72;;;2.17;;
66585;SDS011;53444;45.822;16.092;2023-03-24T09:58:27;3.03;;;2.08;;
66585;SDS011;53444;45.822;16.092;2023-03-24T10:00:57;5.85;;;2.15;;
66585;SDS011;53444;45.822;16.092;2023-03-24T10:03:25;6.25;;;2.22;;
66585;SDS011;53444;45.822;16.092;2023-03-24T10:05:55;2.13;;;1.80;;
66585;SDS011;53444;45.822;16.092;2023-03-24T10:08:26;7.03;;;2.45;;
66585;SDS011;53444;45.822;16.092;2023-03-24T10:10:58;3.50;;;2.03;;
66585;SDS011;53444;45.822;16.092;2023-03-24T10:13:31;3.90;;;2.42;;
66585;SDS011;53444;45.822;16.092;2023-03-24T10:16:09;2.75;;;2.20;;
66585;SDS011;53444;45.822;16.092;2023-03-24T10:18:45;4.63;;;2.20;;
66585;SDS011;53444;45.822;16.092;2023-03-24T10:21:19;4.68;;;2.30;;
66585;SDS011;53444;45.822;16.092;2023-03-24T10:23:49;3.90;;;2.30;;
66585;SDS011;53444;45.822;16.092;2023-03-24T10:26:31;3.42;;;2.20;;
66585;SDS011;53444;45.822;16.092;2023-03-24T10:29:12;3.08;;;2.10;;
66585;SDS011;53444;45.822;16.092;2023-03-24T10:31:49;3.80;;;2.13;;
66585;SDS011;53444;45.822;16.092;2023-03-24T10:34:27;2.97;;;2.08;;
66585;SDS011;53444;45.822;16.092;2023-03-24T10:37:00;2.97;;;2.40;;
66585;SDS011;53444;45.822;16.092;2023-03-24T10:39:28;2.67;;;1.98;;
66585;SDS011;53444;45.822;16.092;2023-03-24T10:41:57;2.58;;;2.20;;
66585;SDS011;53444;45.822;16.092;2023-03-24T10:44:26;3.57;;;2.07;;
66585;SDS011;53444;45.822;16.092;2023-03-24T10:46:55;3.17;;;2.20;;
66585;SDS011;53444;45.822;16.092;2023-03-24T10:49:24;2.95;;;2.15;;
66585;SDS011;53444;45.822;16.092;2023-03-24T10:51:52;2.70;;;1.90;;
66585;SDS011;53444;45.822;16.092;2023-03-24T10:54:27;4.50;;;2.13;;
66585;SDS011;53444;45.822;16.092;2023-03-24T10:57:00;5.23;;;2.73;;
66585;SDS011;53444;45.822;16.092;2023-03-24T10:59:30;6.00;;;3.10;;
66585;SDS011;53444;45.822;16.092;2023-03-24T11:02:01;3.08;;;2.00;;
66585;SDS011;53444;45.822;16.092;2023-03-24T11:04:46;4.22;;;1.90;;
66585;SDS011;53444;45.822;16.092;2023-03-24T11:07:18;3.80;;;2.35;;
66585;SDS011;53444;45.822;16.092;2023-03-24T11:09:55;3.17;;;2.17;;
66585;SDS011;53444;45.822;16.092;2023-03-24T11:12:25;2.80;;;2.00;;
66585;SDS011;53444;45.822;16.092;2023-03-24T11:14:57;2.95;;;1.95;;
66585;SDS011;53444;45.822;16.092;2023-03-24T11:17:28;3.00;;;1.88;;
66585;SDS011;53444;45.822;16.092;2023-03-24T11:19:55;5.40;;;2.55;;
66585;SDS011;53444;45.822;16.092;2023-03-24T11:22:23;4.83;;;2.53;;
66585;SDS011;53444;45.822;16.092;2023-03-24T11:24:54;3.58;;;2.58;;
66585;SDS011;53444;45.822;16.092;2023-03-24T11:27:22;3.95;;;2.50;;
66585;SDS011;53444;45.822;16.092;2023-03-24T11:29:50;5.15;;;2.33;;
66585;SDS011;53444;45.822;16.092;2023-03-24T11:32:21;3.50;;;2.47;;
66585;SDS011;53444;45.822;16.092;2023-03-24T11:34:54;4.37;;;2.40;;
66585;SDS011;53444;45.822;16.092;2023-03-24T11:37:29;4.57;;;2.47;;
66585;SDS011;53444;45.822;16.092;2023-03-24T11:40:20;4.18;;;2.28;;
66585;SDS011;53444;45.822;16.092;2023-03-24T11:42:49;2.97;;;2.30;;
66585;SDS011;53444;45.822;16.092;2023-03-24T11:45:24;2.40;;;1.83;;
66585;SDS011;53444;45.822;16.092;2023-03-24T11:47:54;4.50;;;1.93;;
66585;SDS011;53444;45.822;16.092;2023-03-24T11:50:24;2.60;;;1.70;;
66585;SDS011;53444;45.822;16.092;2023-03-24T11:52:57;2.92;;;2.17;;
66585;SDS011;53444;45.822;16.092;2023-03-24T11:55:33;4.95;;;2.17;;
66585;SDS011;53444;45.822;16.092;2023-03-24T11:58:03;3.15;;;1.98;;
66585;SDS011;53444;45.822;16.092;2023-03-24T12:00:39;2.43;;;1.90;;
66585;SDS011;53444;45.822;16.092;2023-03-24T12:06:18;2.90;;;1.90;;
66585;SDS011;53444;45.822;16.092;2023-03-24T12:09:04;3.20;;;1.90;;
66585;SDS011;53444;45.822;16.092;2023-03-24T12:11:47;3.80;;;2.13;;
66585;SDS011;53444;45.822;16.092;2023-03-24T12:14:25;2.83;;;2.20;;
66585;SDS011;53444;45.822;16.092;2023-03-24T12:17:01;2.95;;;2.03;;
66585;SDS011;53444;45.822;16.092;2023-03-24T12:19:39;2.40;;;1.92;;
66585;SDS011;53444;45.822;16.092;2023-03-24T12:22:33;2.30;;;2.00;;
66585;SDS011;53444;45.822;16.092;2023-03-24T12:25:27;2.88;;;2.10;;
66585;SDS011;53444;45.822;16.092;2023-03-24T12:28:18;3.93;;;1.57;;
66585;SDS011;53444;45.822;16.092;2023-03-24T12:30:58;4.22;;;1.85;;
66585;SDS011;53444;45.822;16.092;2023-03-24T12:33:41;2.33;;;2.08;;
66585;SDS011;53444;45.822;16.092;2023-03-24T12:36:24;2.65;;;2.08;;
66585;SDS011;53444;45.822;16.092;2023-03-24T12:39:03;5.53;;;1.98;;
66585;SDS011;53444;45.822;16.092;2023-03-24T12:47:31;3.38;;;1.88;;
66585;SDS011;53444;45.822;16.092;2023-03-24T12:50:18;2.00;;;1.70;;
66585;SDS011;53444;45.822;16.092;2023-03-24T12:52:59;3.25;;;1.90;;
66585;SDS011;53444;45.822;16.092;2023-03-24T12:55:41;2.00;;;1.70;;
66585;SDS011;53444;45.822;16.092;2023-03-24T12:58:12;3.67;;;2.20;;
66585;SDS011;53444;45.822;16.092;2023-03-24T13:00:55;2.65;;;2.17;;
66585;SDS011;53444;45.822;16.092;2023-03-24T13:03:27;1.95;;;1.75;;
66585;SDS011;53444;45.822;16.092;2023-03-24T13:06:03;3.22;;;2.38;;
66585;SDS011;53444;45.822;16.092;2023-03-24T13:08:36;6.30;;;1.87;;
66585;SDS011;53444;45.822;16.092;2023-03-24T13:11:06;5.80;;;2.08;;
66585;SDS011;53444;45.822;16.092;2023-03-24T13:13:39;3.53;;;2.33;;
66585;SDS011;53444;45.822;16.092;2023-03-24T13:16:10;4.70;;;2.17;;
66585;SDS011;53444;45.822;16.092;2023-03-24T13:18:43;3.97;;;2.45;;
66585;SDS011;53444;45.822;16.092;2023-03-24T13:21:13;4.63;;;2.40;;
66585;SDS011;53444;45.822;16.092;2023-03-24T13:23:45;5.70;;;1.90;;
66585;SDS011;53444;45.822;16.092;2023-03-24T13:26:21;5.20;;;2.38;;
66585;SDS011;53444;45.822;16.092;2023-03-24T13:29:02;3.13;;;1.98;;
66585;SDS011;53444;45.822;16.092;2023-03-24T13:31:37;4.10;;;2.30;;
66585;SDS011;53444;45.822;16.092;2023-03-24T13:34:11;3.63;;;2.37;;
66585;SDS011;53444;45.822;16.092;2023-03-24T13:36:47;2.63;;;2.10;;
66585;SDS011;53444;45.822;16.092;2023-03-24T13:39:17;3.20;;;2.10;;
66585;SDS011;53444;45.822;16.092;2023-03-24T13:41:47;2.20;;;1.90;;
66585;SDS011;53444;45.822;16.092;2023-03-24T13:44:17;2.70;;;2.25;;
66585;SDS011;53444;45.822;16.092;2023-03-24T13:46:58;4.70;;;2.60;;
66585;SDS011;53444;45.822;16.092;2023-03-24T13:49:31;5.55;;;2.45;;
66585;SDS011;53444;45.822;16.092;2023-03-24T13:52:01;4.95;;;2.40;;
66585;SDS011;53444;45.822;16.092;2023-03-24T13:54:30;3.85;;;2.20;;
66585;SDS011;53444;45.822;16.092;2023-03-24T13:57:02;4.32;;;2.30;;
66585;SDS011;53444;45.822;16.092;2023-03-24T13:59:38;4.13;;;2.03;;
66585;SDS011;53444;45.822;16.092;2023-03-24T14:02:20;4.43;;;2.20;;
66585;SDS011;53444;45.822;16.092;2023-03-24T14:04:50;5.22;;;2.67;;
66585;SDS011;53444;45.822;16.092;2023-03-24T14:07:29;3.90;;;2.40;;
66585;SDS011;53444;45.822;16.092;2023-03-24T14:13:04;3.40;;;2.77;;
66585;SDS011;53444;45.822;16.092;2023-03-24T14:15:43;2.85;;;2.45;;
66585;SDS011;53444;45.822;16.092;2023-03-24T14:18:14;3.50;;;2.80;;
66585;SDS011;53444;45.822;16.092;2023-03-24T14:21:03;5.10;;;2.30;;
66585;SDS011;53444;45.822;16.092;2023-03-24T14:23:33;3.50;;;2.25;;
66585;SDS011;53444;45.822;16.092;2023-03-24T14:26:03;5.60;;;2.60;;
66585;SDS011;53444;45.822;16.092;2023-03-24T14:28:36;4.20;;;2.70;;
66585;SDS011;53444;45.822;16.092;2023-03-24T14:31:08;4.82;;;2.72;;
66585;SDS011;53444;45.822;16.092;2023-03-24T14:33:44;3.83;;;2.80;;
66585;SDS011;53444;45.822;16.092;2023-03-24T14:36:28;3.15;;;2.40;;
66585;SDS011;53444;45.822;16.092;2023-03-24T14:39:04;3.63;;;2.70;;
66585;SDS011;53444;45.822;16.092;2023-03-24T14:41:35;5.82;;;2.25;;
66585;SDS011;53444;45.822;16.092;2023-03-24T14:44:05;4.10;;;2.70;;
66585;SDS011;53444;45.822;16.092;2023-03-24T14:46:33;3.42;;;2.78;;
66585;SDS011;53444;45.822;16.092;2023-03-24T14:49:03;5.28;;;2.90;;
66585;SDS011;53444;45.822;16.092;2023-03-24T14:51:37;8.20;;;2.63;;
66585;SDS011;53444;45.822;16.092;2023-03-24T14:54:11;4.88;;;2.90;;
66585;SDS011;53444;45.822;16.092;2023-03-24T14:56:40;3.97;;;3.20;;
66585;SDS011;53444;45.822;16.092;2023-03-24T14:59:14;4.25;;;3.00;;
66585;SDS011;53444;45.822;16.092;2023-03-24T15:01:47;4.25;;;2.92;;
66585;SDS011;53444;45.822;16.092;2023-03-24T15:04:19;7.00;;;3.17;;
66585;SDS011;53444;45.822;16.092;2023-03-24T15:06:47;4.75;;;3.08;;
66585;SDS011;53444;45.822;16.092;2023-03-24T15:09:15;4.72;;;2.90;;
66585;SDS011;53444;45.822;16.092;2023-03-24T15:11:44;4.65;;;2.22;;
66585;SDS011;53444;45.822;16.092;2023-03-24T15:14:14;6.03;;;3.65;;
66585;SDS011;53444;45.822;16.092;2023-03-24T15:16:50;5.00;;;3.27;;
66585;SDS011;53444;45.822;16.092;2023-03-24T15:19:19;5.35;;;3.40;;